KOLV/OLV METAR and TAF weather

Enter ICAO airport designator
Station Type Date Time Source
KOLV METAR 2018/12/19 09:15 UTC NOAA

KOLV 190915Z AUTO 00000KT 10SM OVC027 04/03 A3002 RMK A01


Station Type Date Time Source
KOLV Decoded METAR 2018/12/19 09:15 UTC NOAA

Olive Branch, Olive Branch Airport, MS, United States (KOLV) 34-58-44N 089-47-13W
Dec 19, 2018 - 04:15 AM EST / 2018.12.19 0915 UTC
Wind: Calm:0
Visibility: 10 mile(s):0
Sky conditions: overcast
Temperature: 39 F (4 C)
Dew Point: 37 F (3 C)
Relative Humidity: 93%
Pressure (altimeter): 30.02 in. Hg (1016 hPa)
ob: KOLV 190915Z AUTO 00000KT 10SM OVC027 04/03 A3002 RMK A01
cycle: 9

Station Type Date Time Source
KOLV TAF UTC NOAA

Error!


Example: see airport list